Zabrze, Poland
Current Conditions -  °F | °C
As of 11:30 PM on Monday 24 Nov 2014 (Local Time) from EPKT Reporting Station
Rain Showers Rain Showers  
Wind Chill: 30°   Ceiling: 800
Heat Index: 37°   Visibility: 1.8mi
Dew Point: 37°   Wind: 12mph
Humidity: 100%   Direction: 220°SW
Pressure: 30.27"   Gusts: NA
Location:  50.3°N, 18.78°E
Report Text: EPKT 242130Z 22010KT 3000 -SHRA BR SCT006 BKN008 SCT015CB 03/03 Q1025 RESHRA
Loading
Personal Weather Stations






























Interactive Weather Map New forecast layout! Learn more

10-Day Weather Forecast

Advertisements
Track Severe Weather on mobile